sensor_id;sensor_type;location;lat;lon;timestamp;pressure;altitude;pressure_sealevel;temperature;humidity
40794;BME280;26502;51.886;15.604;2022-09-09T00:04:54;100251.86;;;14.97;71.64
40794;BME280;26502;51.886;15.604;2022-09-09T00:10:18;100251.27;;;14.70;71.72
40794;BME280;26502;51.886;15.604;2022-09-09T00:15:31;100254.90;;;14.56;71.87
40794;BME280;26502;51.886;15.604;2022-09-09T00:20:45;100262.06;;;14.52;72.23
40794;BME280;26502;51.886;15.604;2022-09-09T00:25:58;100259.92;;;14.58;72.24
40794;BME280;26502;51.886;15.604;2022-09-09T00:31:12;100256.76;;;14.58;72.04
40794;BME280;26502;51.886;15.604;2022-09-09T00:36:23;100264.33;;;14.53;72.10
40794;BME280;26502;51.886;15.604;2022-09-09T00:41:37;100259.30;;;14.57;72.22
40794;BME280;26502;51.886;15.604;2022-09-09T00:46:54;100260.12;;;14.65;72.10
40794;BME280;26502;51.886;15.604;2022-09-09T00:52:08;100269.14;;;14.60;71.82
40794;BME280;26502;51.886;15.604;2022-09-09T00:57:25;100274.94;;;14.52;71.87
40794;BME280;26502;51.886;15.604;2022-09-09T01:02:35;100272.27;;;14.55;71.87
40794;BME280;26502;51.886;15.604;2022-09-09T01:07:47;100270.33;;;14.58;71.85
40794;BME280;26502;51.886;15.604;2022-09-09T01:12:56;100275.64;;;14.46;71.63
40794;BME280;26502;51.886;15.604;2022-09-09T01:18:06;100279.05;;;14.26;71.69
40794;BME280;26502;51.886;15.604;2022-09-09T01:23:38;100277.09;;;14.19;71.81
40794;BME280;26502;51.886;15.604;2022-09-09T01:29:08;100277.10;;;14.15;71.81
40794;BME280;26502;51.886;15.604;2022-09-09T01:34:16;100279.74;;;14.06;71.63
40794;BME280;26502;51.886;15.604;2022-09-09T01:39:22;100279.66;;;13.84;71.56
40794;BME280;26502;51.886;15.604;2022-09-09T01:44:37;100280.23;;;13.80;71.91
40794;BME280;26502;51.886;15.604;2022-09-09T01:49:45;100281.14;;;13.80;71.94
40794;BME280;26502;51.886;15.604;2022-09-09T01:54:59;100285.08;;;13.80;71.87
40794;BME280;26502;51.886;15.604;2022-09-09T02:00:15;100288.88;;;13.75;71.98
40794;BME280;26502;51.886;15.604;2022-09-09T02:05:31;100289.93;;;13.79;71.96
40794;BME280;26502;51.886;15.604;2022-09-09T02:10:46;100288.45;;;13.76;71.88
40794;BME280;26502;51.886;15.604;2022-09-09T02:16:04;100284.38;;;13.76;71.85
40794;BME280;26502;51.886;15.604;2022-09-09T02:21:15;100279.86;;;13.66;71.78
40794;BME280;26502;51.886;15.604;2022-09-09T02:26:22;100287.13;;;13.53;71.72
40794;BME280;26502;51.886;15.604;2022-09-09T02:31:34;100293.41;;;13.46;71.84
40794;BME280;26502;51.886;15.604;2022-09-09T02:36:43;100299.96;;;13.32;71.59
40794;BME280;26502;51.886;15.604;2022-09-09T02:41:50;100301.13;;;13.22;71.73
40794;BME280;26502;51.886;15.604;2022-09-09T02:47:11;100300.46;;;13.25;72.03
40794;BME280;26502;51.886;15.604;2022-09-09T02:52:26;100302.25;;;13.29;71.88
40794;BME280;26502;51.886;15.604;2022-09-09T02:57:32;100308.24;;;13.23;71.61
40794;BME280;26502;51.886;15.604;2022-09-09T03:02:38;100311.92;;;13.09;71.70
40794;BME280;26502;51.886;15.604;2022-09-09T03:07:44;100311.94;;;12.91;71.53
40794;BME280;26502;51.886;15.604;2022-09-09T03:12:51;100311.29;;;12.93;72.01
40794;BME280;26502;51.886;15.604;2022-09-09T03:17:56;100315.52;;;13.01;71.95
40794;BME280;26502;51.886;15.604;2022-09-09T03:23:02;100317.78;;;13.02;71.92
40794;BME280;26502;51.886;15.604;2022-09-09T03:28:12;100318.26;;;13.07;71.73
40794;BME280;26502;51.886;15.604;2022-09-09T03:33:22;100314.38;;;13.02;71.77
40794;BME280;26502;51.886;15.604;2022-09-09T03:38:27;100314.61;;;12.94;71.68
40794;BME280;26502;51.886;15.604;2022-09-09T03:43:31;100325.27;;;12.77;71.46
40794;BME280;26502;51.886;15.604;2022-09-09T03:48:36;100324.78;;;12.44;71.69
40794;BME280;26502;51.886;15.604;2022-09-09T03:53:41;100326.34;;;12.22;71.79
40794;BME280;26502;51.886;15.604;2022-09-09T03:58:46;100328.21;;;12.20;72.26
40794;BME280;26502;51.886;15.604;2022-09-09T04:03:51;100331.02;;;12.16;71.96
40794;BME280;26502;51.886;15.604;2022-09-09T04:08:56;100334.38;;;12.17;72.37
40794;BME280;26502;51.886;15.604;2022-09-09T04:14:02;100333.70;;;12.28;72.45
40794;BME280;26502;51.886;15.604;2022-09-09T04:19:07;100335.15;;;12.36;72.38
40794;BME280;26502;51.886;15.604;2022-09-09T04:24:12;100338.37;;;12.36;72.21
40794;BME280;26502;51.886;15.604;2022-09-09T04:29:16;100345.58;;;12.30;71.92
40794;BME280;26502;51.886;15.604;2022-09-09T04:34:21;100342.65;;;12.31;72.23
40794;BME280;26502;51.886;15.604;2022-09-09T04:39:25;100345.20;;;12.34;72.13
40794;BME280;26502;51.886;15.604;2022-09-09T04:44:30;100351.72;;;12.35;72.05
40794;BME280;26502;51.886;15.604;2022-09-09T04:49:36;100360.11;;;12.23;72.05
40794;BME280;26502;51.886;15.604;2022-09-09T04:54:42;100364.42;;;12.18;71.98
40794;BME280;26502;51.886;15.604;2022-09-09T04:59:46;100368.75;;;12.16;72.05
40794;BME280;26502;51.886;15.604;2022-09-09T05:04:51;100368.23;;;12.16;72.22
40794;BME280;26502;51.886;15.604;2022-09-09T05:09:57;100373.69;;;12.22;72.11
40794;BME280;26502;51.886;15.604;2022-09-09T05:15:03;100369.33;;;12.20;72.16
40794;BME280;26502;51.886;15.604;2022-09-09T05:20:09;100373.34;;;12.26;72.09
40794;BME280;26502;51.886;15.604;2022-09-09T05:25:13;100373.11;;;12.31;72.15
40794;BME280;26502;51.886;15.604;2022-09-09T05:30:18;100374.90;;;12.31;72.10
40794;BME280;26502;51.886;15.604;2022-09-09T05:35:23;100386.85;;;12.30;72.24
40794;BME280;26502;51.886;15.604;2022-09-09T05:40:28;100388.44;;;12.39;72.44
40794;BME280;26502;51.886;15.604;2022-09-09T05:45:33;100387.27;;;12.45;72.49
40794;BME280;26502;51.886;15.604;2022-09-09T05:50:38;100384.13;;;12.55;72.82
40794;BME280;26502;51.886;15.604;2022-09-09T05:55:46;100388.02;;;12.72;72.92
40794;BME280;26502;51.886;15.604;2022-09-09T06:00:51;100386.70;;;12.89;73.03
40794;BME280;26502;51.886;15.604;2022-09-09T06:05:59;100392.67;;;12.98;73.11
40794;BME280;26502;51.886;15.604;2022-09-09T06:11:05;100392.16;;;13.20;73.41
40794;BME280;26502;51.886;15.604;2022-09-09T06:16:12;100387.11;;;13.44;73.74
40794;BME280;26502;51.886;15.604;2022-09-09T06:21:18;100389.56;;;13.74;74.04
40794;BME280;26502;51.886;15.604;2022-09-09T06:26:25;100379.99;;;14.08;74.33
40794;BME280;26502;51.886;15.604;2022-09-09T06:31:32;100387.19;;;14.41;74.49
40794;BME280;26502;51.886;15.604;2022-09-09T06:36:41;100389.66;;;14.62;74.41
40794;BME280;26502;51.886;15.604;2022-09-09T06:41:46;100385.94;;;14.75;74.41
40794;BME280;26502;51.886;15.604;2022-09-09T06:47:10;100393.61;;;14.85;74.53
40794;BME280;26502;51.886;15.604;2022-09-09T06:52:15;100393.67;;;15.07;74.85
40794;BME280;26502;51.886;15.604;2022-09-09T06:57:22;100391.13;;;15.27;74.82
40794;BME280;26502;51.886;15.604;2022-09-09T07:02:32;100383.39;;;15.46;74.99
40794;BME280;26502;51.886;15.604;2022-09-09T07:07:43;100383.80;;;15.62;74.91
40794;BME280;26502;51.886;15.604;2022-09-09T07:12:52;100388.84;;;15.89;75.20
40794;BME280;26502;51.886;15.604;2022-09-09T07:18:02;100384.34;;;16.34;75.28
40794;BME280;26502;51.886;15.604;2022-09-09T07:24:12;100382.56;;;16.63;74.82
40794;BME280;26502;51.886;15.604;2022-09-09T07:29:26;100383.73;;;16.70;73.72
40794;BME280;26502;51.886;15.604;2022-09-09T07:34:34;100386.77;;;16.87;74.61
40794;BME280;26502;51.886;15.604;2022-09-09T07:39:45;100390.33;;;17.33;74.35
40794;BME280;26502;51.886;15.604;2022-09-09T07:45:00;100392.02;;;17.78;74.81
40794;BME280;26502;51.886;15.604;2022-09-09T07:50:09;100395.13;;;18.00;73.65
40794;BME280;26502;51.886;15.604;2022-09-09T07:55:20;100397.52;;;17.93;73.20
40794;BME280;26502;51.886;15.604;2022-09-09T08:00:32;100397.88;;;17.98;72.94
40794;BME280;26502;51.886;15.604;2022-09-09T08:05:45;100394.89;;;17.92;72.65
40794;BME280;26502;51.886;15.604;2022-09-09T08:11:05;100394.67;;;18.09;73.18
40794;BME280;26502;51.886;15.604;2022-09-09T08:16:17;100395.23;;;18.37;73.20
40794;BME280;26502;51.886;15.604;2022-09-09T08:21:33;100402.82;;;18.62;73.40
40794;BME280;26502;51.886;15.604;2022-09-09T08:26:43;100409.20;;;18.92;73.28
40794;BME280;26502;51.886;15.604;2022-09-09T08:31:53;100405.69;;;19.04;72.52
40794;BME280;26502;51.886;15.604;2022-09-09T08:37:04;100411.23;;;19.21;72.21
40794;BME280;26502;51.886;15.604;2022-09-09T08:42:23;100414.84;;;19.34;72.26
40794;BME280;26502;51.886;15.604;2022-09-09T08:47:42;100408.86;;;19.51;72.02
40794;BME280;26502;51.886;15.604;2022-09-09T08:52:59;100413.70;;;19.76;72.00
40794;BME280;26502;51.886;15.604;2022-09-09T08:58:13;100407.17;;;20.04;71.63
40794;BME280;26502;51.886;15.604;2022-09-09T09:03:45;100403.40;;;20.36;71.15
40794;BME280;26502;51.886;15.604;2022-09-09T09:09:01;100402.71;;;20.54;70.13
40794;BME280;26502;51.886;15.604;2022-09-09T09:14:14;100404.55;;;20.49;69.55
40794;BME280;26502;51.886;15.604;2022-09-09T09:19:28;100406.61;;;20.69;69.53
40794;BME280;26502;51.886;15.604;2022-09-09T09:24:45;100410.12;;;20.91;68.79
40794;BME280;26502;51.886;15.604;2022-09-09T09:29:59;100414.80;;;21.00;67.82
40794;BME280;26502;51.886;15.604;2022-09-09T09:35:13;100410.64;;;21.05;67.07
40794;BME280;26502;51.886;15.604;2022-09-09T09:40:23;100409.23;;;21.24;66.64
40794;BME280;26502;51.886;15.604;2022-09-09T09:45:34;100407.72;;;21.34;65.70
40794;BME280;26502;51.886;15.604;2022-09-09T09:50:50;100407.92;;;21.40;64.82
40794;BME280;26502;51.886;15.604;2022-09-09T09:56:02;100408.59;;;21.61;64.14
40794;BME280;26502;51.886;15.604;2022-09-09T10:01:22;100407.06;;;21.73;63.35
40794;BME280;26502;51.886;15.604;2022-09-09T10:06:33;100405.33;;;21.90;63.14
40794;BME280;26502;51.886;15.604;2022-09-09T10:11:48;100401.00;;;22.10;62.00
40794;BME280;26502;51.886;15.604;2022-09-09T10:17:10;100404.13;;;22.17;60.91
40794;BME280;26502;51.886;15.604;2022-09-09T10:22:30;100404.45;;;22.36;60.41
40794;BME280;26502;51.886;15.604;2022-09-09T10:27:50;100403.13;;;22.78;60.09
40794;BME280;26502;51.886;15.604;2022-09-09T10:33:08;100407.52;;;23.00;59.05
40794;BME280;26502;51.886;15.604;2022-09-09T10:38:18;100407.05;;;23.26;58.55
40794;BME280;26502;51.886;15.604;2022-09-09T10:43:42;100406.86;;;23.42;58.10
40794;BME280;26502;51.886;15.604;2022-09-09T10:49:02;100407.11;;;23.48;57.28
40794;BME280;26502;51.886;15.604;2022-09-09T10:54:28;100400.25;;;23.45;55.78
40794;BME280;26502;51.886;15.604;2022-09-09T10:59:45;100396.08;;;23.59;55.99
40794;BME280;26502;51.886;15.604;2022-09-09T11:04:57;100393.52;;;23.91;55.62
40794;BME280;26502;51.886;15.604;2022-09-09T11:10:18;100398.36;;;24.21;55.18
40794;BME280;26502;51.886;15.604;2022-09-09T11:15:39;100393.55;;;24.41;54.83
40794;BME280;26502;51.886;15.604;2022-09-09T11:20:57;100388.10;;;24.83;54.53
40794;BME280;26502;51.886;15.604;2022-09-09T11:26:10;100386.21;;;24.82;52.87
40794;BME280;26502;51.886;15.604;2022-09-09T11:31:33;100385.30;;;24.44;52.83
40794;BME280;26502;51.886;15.604;2022-09-09T11:37:07;100391.99;;;23.96;52.92
40794;BME280;26502;51.886;15.604;2022-09-09T11:42:20;100382.32;;;24.58;52.61
40794;BME280;26502;51.886;15.604;2022-09-09T11:47:31;100381.64;;;25.05;51.69
40794;BME280;26502;51.886;15.604;2022-09-09T11:52:43;100377.60;;;25.07;50.93
40794;BME280;26502;51.886;15.604;2022-09-09T11:58:02;100381.49;;;24.69;50.27
40794;BME280;26502;51.886;15.604;2022-09-09T12:03:35;100380.45;;;24.40;50.17
40794;BME280;26502;51.886;15.604;2022-09-09T12:08:48;100372.96;;;24.29;50.76
40794;BME280;26502;51.886;15.604;2022-09-09T12:13:59;100385.34;;;23.91;50.91
40794;BME280;26502;51.886;15.604;2022-09-09T12:19:20;100378.94;;;23.65;51.62
40794;BME280;26502;51.886;15.604;2022-09-09T12:24:36;100378.69;;;23.45;52.42
40794;BME280;26502;51.886;15.604;2022-09-09T12:29:54;100386.52;;;23.35;52.54
40794;BME280;26502;51.886;15.604;2022-09-09T12:35:09;100395.76;;;23.11;53.63
40794;BME280;26502;51.886;15.604;2022-09-09T12:40:24;100400.29;;;22.69;53.53
40794;BME280;26502;51.886;15.604;2022-09-09T12:45:33;100407.92;;;21.97;54.27
40794;BME280;26502;51.886;15.604;2022-09-09T12:50:54;100414.77;;;21.27;56.07
40794;BME280;26502;51.886;15.604;2022-09-09T12:56:06;100418.40;;;21.23;57.50
40794;BME280;26502;51.886;15.604;2022-09-09T13:01:23;100428.91;;;21.13;58.24
40794;BME280;26502;51.886;15.604;2022-09-09T13:06:32;100423.52;;;21.15;59.05
40794;BME280;26502;51.886;15.604;2022-09-09T13:11:42;100409.32;;;21.30;59.44
40794;BME280;26502;51.886;15.604;2022-09-09T13:16:59;100417.34;;;21.27;59.54
40794;BME280;26502;51.886;15.604;2022-09-09T13:22:19;100410.37;;;21.17;60.03
40794;BME280;26502;51.886;15.604;2022-09-09T13:27:31;100403.66;;;21.06;60.45
40794;BME280;26502;51.886;15.604;2022-09-09T13:32:41;100401.08;;;21.38;60.73
40794;BME280;26502;51.886;15.604;2022-09-09T13:37:49;100398.41;;;22.16;60.20
40794;BME280;26502;51.886;15.604;2022-09-09T13:43:00;100397.83;;;22.98;59.61
40794;BME280;26502;51.886;15.604;2022-09-09T13:48:21;100396.25;;;23.46;58.85
40794;BME280;26502;51.886;15.604;2022-09-09T13:53:31;100386.71;;;23.21;58.05
40794;BME280;26502;51.886;15.604;2022-09-09T13:58:41;100383.05;;;22.82;58.54
40794;BME280;26502;51.886;15.604;2022-09-09T14:03:51;100379.38;;;22.69;59.11
40794;BME280;26502;51.886;15.604;2022-09-09T14:08:59;100370.36;;;22.54;59.80
40794;BME280;26502;51.886;15.604;2022-09-09T14:14:09;100372.39;;;22.61;60.34
40794;BME280;26502;51.886;15.604;2022-09-09T14:19:15;100377.38;;;22.65;60.21
40794;BME280;26502;51.886;15.604;2022-09-09T14:24:23;100381.40;;;22.87;59.38
40794;BME280;26502;51.886;15.604;2022-09-09T14:29:31;100383.35;;;23.30;58.51
40794;BME280;26502;51.886;15.604;2022-09-09T14:34:42;100384.02;;;23.00;58.76
40794;BME280;26502;51.886;15.604;2022-09-09T14:39:52;100380.60;;;22.77;58.39
40794;BME280;26502;51.886;15.604;2022-09-09T14:45:02;100370.77;;;22.15;58.45
40794;BME280;26502;51.886;15.604;2022-09-09T14:50:10;100356.83;;;21.97;59.47
40794;BME280;26502;51.886;15.604;2022-09-09T14:55:19;100344.85;;;22.10;59.60
40794;BME280;26502;51.886;15.604;2022-09-09T15:00:27;100336.32;;;22.54;59.75
40794;BME280;26502;51.886;15.604;2022-09-09T15:05:34;100347.54;;;23.69;59.43
40794;BME280;26502;51.886;15.604;2022-09-09T15:10:43;100342.66;;;24.38;57.81
40794;BME280;26502;51.886;15.604;2022-09-09T15:15:52;100327.26;;;24.63;57.64
40794;BME280;26502;51.886;15.604;2022-09-09T15:20:59;100336.59;;;25.01;56.85
40794;BME280;26502;51.886;15.604;2022-09-09T15:26:09;100344.36;;;25.02;55.90
40794;BME280;26502;51.886;15.604;2022-09-09T15:31:18;100334.73;;;24.34;55.92
40794;BME280;26502;51.886;15.604;2022-09-09T15:36:27;100343.83;;;23.80;56.13
40794;BME280;26502;51.886;15.604;2022-09-09T15:41:35;100359.05;;;23.10;56.40
40794;BME280;26502;51.886;15.604;2022-09-09T15:46:44;100354.17;;;22.63;57.22
40794;BME280;26502;51.886;15.604;2022-09-09T15:51:54;100355.63;;;22.46;57.71
40794;BME280;26502;51.886;15.604;2022-09-09T15:57:04;100356.55;;;22.17;58.19
40794;BME280;26502;51.886;15.604;2022-09-09T16:02:12;100358.31;;;22.06;58.96
40794;BME280;26502;51.886;15.604;2022-09-09T16:07:21;100347.69;;;22.04;59.23
40794;BME280;26502;51.886;15.604;2022-09-09T16:12:28;100344.95;;;22.06;59.55
40794;BME280;26502;51.886;15.604;2022-09-09T16:17:36;100341.94;;;22.37;59.78
40794;BME280;26502;51.886;15.604;2022-09-09T16:22:45;100338.81;;;22.40;59.82
40794;BME280;26502;51.886;15.604;2022-09-09T16:27:52;100331.00;;;22.21;60.30
40794;BME280;26502;51.886;15.604;2022-09-09T16:33:00;100334.08;;;21.98;60.53
40794;BME280;26502;51.886;15.604;2022-09-09T16:38:07;100336.33;;;21.76;60.96
40794;BME280;26502;51.886;15.604;2022-09-09T16:43:15;100335.34;;;21.53;61.37
40794;BME280;26502;51.886;15.604;2022-09-09T16:48:22;100334.04;;;21.36;61.73
40794;BME280;26502;51.886;15.604;2022-09-09T16:53:29;100328.64;;;21.18;62.23
40794;BME280;26502;51.886;15.604;2022-09-09T16:58:36;100335.38;;;21.07;62.36
40794;BME280;26502;51.886;15.604;2022-09-09T17:03:43;100351.52;;;20.97;62.79
40794;BME280;26502;51.886;15.604;2022-09-09T17:08:55;100357.35;;;20.89;62.95
40794;BME280;26502;51.886;15.604;2022-09-09T17:14:02;100366.10;;;20.84;63.07
40794;BME280;26502;51.886;15.604;2022-09-09T17:19:12;100387.50;;;20.62;63.18
40794;BME280;26502;51.886;15.604;2022-09-09T17:24:20;100393.52;;;20.24;63.50
40794;BME280;26502;51.886;15.604;2022-09-09T17:29:28;100390.53;;;20.20;64.14
40794;BME280;26502;51.886;15.604;2022-09-09T17:34:35;100389.55;;;20.24;64.16
40794;BME280;26502;51.886;15.604;2022-09-09T17:39:43;100386.88;;;20.07;64.07
40794;BME280;26502;51.886;15.604;2022-09-09T17:44:51;100380.73;;;20.14;64.38
40794;BME280;26502;51.886;15.604;2022-09-09T17:49:58;100365.35;;;20.19;64.55
40794;BME280;26502;51.886;15.604;2022-09-09T17:55:07;100360.73;;;20.14;64.63
40794;BME280;26502;51.886;15.604;2022-09-09T18:00:15;100361.50;;;20.04;64.87
40794;BME280;26502;51.886;15.604;2022-09-09T18:05:22;100357.06;;;19.89;64.86
40794;BME280;26502;51.886;15.604;2022-09-09T18:10:30;100360.75;;;19.78;65.04
40794;BME280;26502;51.886;15.604;2022-09-09T18:15:39;100369.59;;;19.66;64.89
40794;BME280;26502;51.886;15.604;2022-09-09T18:20:47;100364.34;;;19.47;65.25
40794;BME280;26502;51.886;15.604;2022-09-09T18:26:03;100365.95;;;19.42;65.24
40794;BME280;26502;51.886;15.604;2022-09-09T18:31:14;100364.99;;;19.41;65.35
40794;BME280;26502;51.886;15.604;2022-09-09T18:36:24;100367.34;;;19.38;65.43
40794;BME280;26502;51.886;15.604;2022-09-09T18:41:33;100382.46;;;19.21;65.48
40794;BME280;26502;51.886;15.604;2022-09-09T18:46:41;100386.78;;;19.06;65.58
40794;BME280;26502;51.886;15.604;2022-09-09T18:51:49;100388.97;;;18.96;65.78
40794;BME280;26502;51.886;15.604;2022-09-09T18:56:57;100388.61;;;18.91;65.69
40794;BME280;26502;51.886;15.604;2022-09-09T19:02:06;100398.23;;;18.56;65.96
40794;BME280;26502;51.886;15.604;2022-09-09T19:07:16;100402.61;;;18.61;66.31
40794;BME280;26502;51.886;15.604;2022-09-09T19:12:24;100400.80;;;18.53;66.49
40794;BME280;26502;51.886;15.604;2022-09-09T19:17:30;100403.55;;;18.52;66.57
40794;BME280;26502;51.886;15.604;2022-09-09T19:22:39;100400.36;;;18.49;66.42
40794;BME280;26502;51.886;15.604;2022-09-09T19:27:46;100398.34;;;18.42;66.67
40794;BME280;26502;51.886;15.604;2022-09-09T19:32:54;100410.91;;;18.34;66.54
40794;BME280;26502;51.886;15.604;2022-09-09T19:38:03;100417.44;;;18.12;66.83
40794;BME280;26502;51.886;15.604;2022-09-09T19:43:12;100436.27;;;17.83;67.03
40794;BME280;26502;51.886;15.604;2022-09-09T19:48:19;100447.48;;;17.65;67.41
40794;BME280;26502;51.886;15.604;2022-09-09T19:53:27;100454.65;;;17.46;67.48
40794;BME280;26502;51.886;15.604;2022-09-09T19:58:34;100457.88;;;17.29;67.76
40794;BME280;26502;51.886;15.604;2022-09-09T20:03:44;100460.33;;;17.22;68.16
40794;BME280;26502;51.886;15.604;2022-09-09T20:08:52;100469.09;;;17.25;68.42
40794;BME280;26502;51.886;15.604;2022-09-09T20:14:00;100467.85;;;17.36;68.59
40794;BME280;26502;51.886;15.604;2022-09-09T20:19:10;100478.51;;;17.33;68.46
40794;BME280;26502;51.886;15.604;2022-09-09T20:24:20;100491.27;;;17.12;68.58
40794;BME280;26502;51.886;15.604;2022-09-09T20:29:28;100491.54;;;17.11;68.96
40794;BME280;26502;51.886;15.604;2022-09-09T20:34:35;100487.79;;;17.19;69.21
40794;BME280;26502;51.886;15.604;2022-09-09T20:39:42;100488.19;;;17.21;69.06
40794;BME280;26502;51.886;15.604;2022-09-09T20:44:50;100483.76;;;17.09;68.98
40794;BME280;26502;51.886;15.604;2022-09-09T20:49:58;100479.84;;;17.00;68.84
40794;BME280;26502;51.886;15.604;2022-09-09T20:55:08;100462.25;;;16.94;69.14
40794;BME280;26502;51.886;15.604;2022-09-09T21:00:16;100440.23;;;17.08;69.50
40794;BME280;26502;51.886;15.604;2022-09-09T21:05:23;100443.46;;;16.96;69.08
40794;BME280;26502;51.886;15.604;2022-09-09T21:10:30;100468.56;;;16.85;69.25
40794;BME280;26502;51.886;15.604;2022-09-09T21:15:38;100516.99;;;16.66;69.63
40794;BME280;26502;51.886;15.604;2022-09-09T21:20:47;100521.02;;;16.53;69.85
40794;BME280;26502;51.886;15.604;2022-09-09T21:25:55;100525.88;;;16.44;69.98
40794;BME280;26502;51.886;15.604;2022-09-09T21:31:03;100511.35;;;16.32;70.28
40794;BME280;26502;51.886;15.604;2022-09-09T21:36:13;100487.45;;;16.21;70.57
40794;BME280;26502;51.886;15.604;2022-09-09T21:41:21;100453.89;;;16.28;71.06
40794;BME280;26502;51.886;15.604;2022-09-09T21:46:29;100435.50;;;16.36;70.95
40794;BME280;26502;51.886;15.604;2022-09-09T21:51:37;100412.61;;;16.29;71.29
40794;BME280;26502;51.886;15.604;2022-09-09T21:56:45;100394.90;;;16.34;71.43
40794;BME280;26502;51.886;15.604;2022-09-09T22:01:57;100377.33;;;16.43;71.32
40794;BME280;26502;51.886;15.604;2022-09-09T22:07:05;100373.56;;;16.40;71.21
40794;BME280;26502;51.886;15.604;2022-09-09T22:12:14;100386.47;;;16.31;71.01
40794;BME280;26502;51.886;15.604;2022-09-09T22:17:21;100401.14;;;15.84;71.49
40794;BME280;26502;51.886;15.604;2022-09-09T22:22:29;100392.02;;;15.65;71.79
40794;BME280;26502;51.886;15.604;2022-09-09T22:27:36;100381.59;;;15.72;72.44
40794;BME280;26502;51.886;15.604;2022-09-09T22:32:43;100384.70;;;15.80;72.20
40794;BME280;26502;51.886;15.604;2022-09-09T22:37:51;100375.98;;;15.63;72.28
40794;BME280;26502;51.886;15.604;2022-09-09T22:43:00;100368.00;;;15.65;72.44
40794;BME280;26502;51.886;15.604;2022-09-09T22:48:07;100368.31;;;15.69;72.50
40794;BME280;26502;51.886;15.604;2022-09-09T22:53:15;100373.14;;;15.72;72.26
40794;BME280;26502;51.886;15.604;2022-09-09T22:58:21;100370.09;;;15.66;72.36
40794;BME280;26502;51.886;15.604;2022-09-09T23:03:30;100369.72;;;15.54;72.32
40794;BME280;26502;51.886;15.604;2022-09-09T23:08:38;100367.33;;;15.46;72.39
40794;BME280;26502;51.886;15.604;2022-09-09T23:13:49;100363.55;;;15.46;72.67
40794;BME280;26502;51.886;15.604;2022-09-09T23:18:57;100360.01;;;15.55;72.70
40794;BME280;26502;51.886;15.604;2022-09-09T23:24:06;100351.52;;;15.59;72.40
40794;BME280;26502;51.886;15.604;2022-09-09T23:29:14;100351.90;;;15.62;72.40
40794;BME280;26502;51.886;15.604;2022-09-09T23:34:22;100348.80;;;15.63;72.18
40794;BME280;26502;51.886;15.604;2022-09-09T23:39:31;100351.52;;;15.59;72.25
40794;BME280;26502;51.886;15.604;2022-09-09T23:44:39;100357.88;;;15.58;72.02
40794;BME280;26502;51.886;15.604;2022-09-09T23:49:49;100367.21;;;15.45;71.95
40794;BME280;26502;51.886;15.604;2022-09-09T23:55:01;100368.39;;;15.21;72.01
